This is the latest recevied weather packets stored in our database for station/object IZ7XUV. If no packets are shown the sender has not sent any weather packets the latest 10 day(s).
| Time | Temp. | Humidity | Pressure | Rain* | Wind** | Luminosity | Snow |
|---|---|---|---|---|---|---|---|
| 1777512675 | 17.22° C | 80% | 1016.2 hPa | 0 mm | - | 0 W/m² | - |
| 1777510845 | 17.22° C | 77% | 1016.3 hPa | 0 mm | - | 0 W/m² | - |
| 1777509076 | 17.22° C | 83% | 1016.1 hPa | 0 mm | - | 0 W/m² | - |
| 1777507875 | 16.67° C | 85% | 1016 hPa | 0 mm | - | 0 W/m² | - |
| 1777507245 | 17.22° C | 87% | 1016 hPa | 0 mm | - | 0 W/m² | - |
| 1777504866 | 17.22° C | 92% | 1016.2 hPa | 0 mm | - | 0 W/m² | - |
| 1777504256 | 17.22° C | 92% | 1016 hPa | 0 mm | - | 0 W/m² | - |
| 1777503037 | 17.22° C | 91% | 1016 hPa | 0 mm | - | 0 W/m² | - |
| 1777502427 | 17.22° C | 91% | 1015.9 hPa | 0 mm | - | 0 W/m² | - |
| 1777496448 | 18.89° C | 67% | 1015.2 hPa | 0 mm | - | 0 W/m² | - |
| 1777489250 | 17.78° C | 80% | 1014.4 hPa | 0 mm | - | 0 W/m² | - |
| 1777488031 | 18.89° C | 86% | 1014.4 hPa | 0 mm | - | 0 W/m² | - |
| 1777487421 | 18.89° C | 85% | 1014.3 hPa | 0 mm | - | 0 W/m² | - |
| 1777480833 | 20° C | 79% | 1014 hPa | 0 mm | - | 57 W/m² | - |
| 1777479674 | 20.56° C | 78% | 1014 hPa | 0 mm | - | 80 W/m² | - |
| 1777477844 | 20.56° C | 77% | 1014.2 hPa | 0 mm | - | 159 W/m² | - |
| 1777474855 | 20.56° C | 78% | 1014.5 hPa | 0 mm | - | 312 W/m² | - |
| 1777471256 | 21.11° C | 78% | 1014.8 hPa | 0 mm | - | 474 W/m² | - |
| 1777468266 | 21.67° C | 74% | 1015.4 hPa | 0 mm | - | 585 W/m² | - |
| 1777465826 | 21.11° C | 62% | 1015.8 hPa | 0 mm | - | 652 W/m² | - |
| 1777460456 | 21.11° C | 69% | 1016.2 hPa | 0 mm | - | 734 W/m² | - |
| 1777458627 | 20.56° C | 65% | 1016.4 hPa | 0 mm | - | 743 W/m² | - |
| 1777450269 | 19.44° C | 74% | 1016.6 hPa | 0 mm | - | 560 W/m² | - |
| 1777446670 | 17.78° C | 82% | 1016.5 hPa | 0 mm | - | 402 W/m² | - |
| 1777444840 | 18.33° C | 80% | 1016.6 hPa | 0 mm | - | 315 W/m² | - |
* Rain latest hour (hover to see other rain measurements)
** Current wind speed in m/s (hover to see current wind gust speed)